createdAt,value
2023-03-12T00:00:08.734Z,11.00
2023-03-12T00:05:11.114Z,10.90
2023-03-12T00:10:13.198Z,10.90
2023-03-12T00:15:15.361Z,10.90
2023-03-12T00:20:17.942Z,10.90
2023-03-12T00:25:21.237Z,10.90
2023-03-12T00:30:23.246Z,10.90
2023-03-12T00:35:25.835Z,10.90
2023-03-12T00:40:28.075Z,10.90
2023-03-12T00:45:30.125Z,10.90
2023-03-12T00:50:32.173Z,10.90
2023-03-12T00:55:34.315Z,11.00
2023-03-12T01:00:36.588Z,10.90
2023-03-12T01:05:40.779Z,10.90
2023-03-12T01:10:43.904Z,10.90
2023-03-12T01:15:45.946Z,10.90
2023-03-12T01:20:48.117Z,10.90
2023-03-12T01:25:51.928Z,10.90
2023-03-12T01:30:53.983Z,10.90
2023-03-12T01:35:56.479Z,10.90
2023-03-12T01:40:58.955Z,10.90
2023-03-12T01:46:01.268Z,10.90
2023-03-12T01:51:04.799Z,10.90
2023-03-12T01:56:08.113Z,10.80
2023-03-12T02:01:10.434Z,10.70
2023-03-12T02:06:15.643Z,10.70
2023-03-12T02:11:17.985Z,10.60
2023-03-12T02:16:20.719Z,10.60
2023-03-12T02:21:23.877Z,10.50
2023-03-12T02:26:28.252Z,10.40
2023-03-12T02:31:38.584Z,10.40
2023-03-12T02:36:42.234Z,10.30
2023-03-12T02:41:57.724Z,10.20
2023-03-12T02:47:01.574Z,10.20
2023-03-12T02:52:04.777Z,10.10
2023-03-12T02:57:07.293Z,10.10
2023-03-12T03:02:12.715Z,10.00
2023-03-12T03:07:15.346Z,9.90
2023-03-12T03:12:17.565Z,9.80
2023-03-12T03:17:20.025Z,9.80
2023-03-12T03:22:22.618Z,9.80
2023-03-12T03:27:25.006Z,9.70
2023-03-12T03:32:28.540Z,9.70
2023-03-12T03:37:30.841Z,9.80
2023-03-12T03:42:33.214Z,9.80
2023-03-12T03:47:35.770Z,9.80
2023-03-12T03:52:38.419Z,9.70
2023-03-12T03:57:41.170Z,9.70
2023-03-12T04:02:44.682Z,9.70
2023-03-12T04:07:48.708Z,9.60
2023-03-12T04:12:53.992Z,9.60
2023-03-12T04:17:56.297Z,9.60
2023-03-12T04:23:01.277Z,9.50
2023-03-12T04:28:04.628Z,9.50
2023-03-12T04:33:08.381Z,9.50
2023-03-12T04:38:10.957Z,9.50
2023-03-12T04:43:13.429Z,9.40
2023-03-12T04:48:15.646Z,9.40
2023-03-12T04:53:18.765Z,9.40
2023-03-12T04:58:23.042Z,9.40
2023-03-12T05:03:26.369Z,9.40
2023-03-12T05:08:29.128Z,9.30
2023-03-12T05:13:31.423Z,9.30
2023-03-12T05:18:34.360Z,9.30
2023-03-12T05:23:36.778Z,9.30
2023-03-12T05:28:38.992Z,9.30
2023-03-12T05:33:41.929Z,9.20
2023-03-12T05:38:45.288Z,9.20
2023-03-12T05:43:50.077Z,9.20
2023-03-12T05:48:53.751Z,9.30
2023-03-12T05:53:56.481Z,9.40
2023-03-12T05:58:58.640Z,9.40
2023-03-12T06:04:01.632Z,9.50
2023-03-12T06:09:05.379Z,9.50
2023-03-12T06:14:07.683Z,9.60
2023-03-12T06:19:14.243Z,9.60
2023-03-12T06:24:18.477Z,9.60
2023-03-12T06:29:28.578Z,9.70
2023-03-12T06:34:30.741Z,9.70
2023-03-12T06:39:32.875Z,9.70
2023-03-12T06:44:34.999Z,9.80
2023-03-12T06:49:38.222Z,9.80
2023-03-12T06:54:40.441Z,9.80
2023-03-12T06:59:42.996Z,9.80
2023-03-12T07:04:45.262Z,9.90
2023-03-12T07:09:47.502Z,9.90
2023-03-12T07:14:49.592Z,10.00
2023-03-12T07:19:52.097Z,10.00
2023-03-12T07:24:54.193Z,10.00
2023-03-12T07:29:56.318Z,10.10
2023-03-12T07:34:58.384Z,10.10
2023-03-12T07:40:00.545Z,10.10
2023-03-12T07:45:04.301Z,10.20
2023-03-12T07:50:07.043Z,10.30
2023-03-12T07:55:10.615Z,10.30
2023-03-12T08:00:13.560Z,10.40
2023-03-12T08:05:15.899Z,10.40
2023-03-12T08:10:18.445Z,10.40
2023-03-12T08:15:20.604Z,10.50
2023-03-12T08:20:22.722Z,10.50
2023-03-12T08:25:25.035Z,10.50
2023-03-12T08:30:30.014Z,10.50
2023-03-12T08:35:32.383Z,10.70
2023-03-12T08:40:35.063Z,10.80
2023-03-12T08:45:37.668Z,10.80
2023-03-12T08:50:40.059Z,10.90
2023-03-12T08:55:42.233Z,10.90
2023-03-12T09:00:44.477Z,10.90
2023-03-12T09:05:46.667Z,11.00
2023-03-12T09:10:52.448Z,11.00
2023-03-12T09:16:00.036Z,11.10
2023-03-12T09:21:02.897Z,11.10
2023-03-12T09:26:05.131Z,11.10
2023-03-12T09:31:07.290Z,11.10
2023-03-12T09:36:09.623Z,11.10
2023-03-12T09:41:19.330Z,11.30
2023-03-12T09:46:27.044Z,11.50
2023-03-12T09:51:39.098Z,11.50
2023-03-12T09:56:41.524Z,11.60
2023-03-12T10:01:58.105Z,11.70
2023-03-12T10:07:24.536Z,11.80
2023-03-12T10:12:39.359Z,11.90
2023-03-12T10:18:31.864Z,11.80
2023-03-12T10:23:48.560Z,11.90
2023-03-12T10:28:57.390Z,12.00
2023-03-12T10:34:01.560Z,12.10
2023-03-12T10:39:04.404Z,12.20
2023-03-12T10:44:13.201Z,12.20
2023-03-12T10:49:27.460Z,12.30
2023-03-12T10:54:33.904Z,12.50
2023-03-12T10:59:38.822Z,12.40
2023-03-12T11:04:40.973Z,12.40
2023-03-12T11:09:43.013Z,12.60
2023-03-12T11:14:46.925Z,12.80
2023-03-12T11:19:49.028Z,13.00
2023-03-12T11:25:07.252Z,13.10
2023-03-12T11:30:15.149Z,13.40
2023-03-12T11:35:24.144Z,13.60
2023-03-12T11:40:44.645Z,13.70
2023-03-12T11:46:17.676Z,13.80
2023-03-12T11:51:37.592Z,13.90
2023-03-12T11:56:48.894Z,14.10
2023-03-12T12:02:17.174Z,14.20
2023-03-12T12:07:22.345Z,14.30
2023-03-12T12:12:36.406Z,14.20
2023-03-12T12:18:04.647Z,13.90
2023-03-12T12:23:33.313Z,13.80
2023-03-12T12:28:44.507Z,13.70
2023-03-12T12:34:02.040Z,13.70
2023-03-12T12:39:23.346Z,13.60
2023-03-12T12:44:31.067Z,13.70
2023-03-12T12:50:00.586Z,13.90
2023-03-12T12:55:21.697Z,14.10
2023-03-12T13:01:09.347Z,14.10
2023-03-12T13:06:11.763Z,14.20
2023-03-12T13:11:20.273Z,14.30
2023-03-12T13:16:43.346Z,14.20
2023-03-12T13:21:51.661Z,14.00
2023-03-12T13:27:00.651Z,13.80
2023-03-12T13:32:02.990Z,13.70
2023-03-12T13:37:27.389Z,13.60
2023-03-12T13:42:39.460Z,13.60
2023-03-12T13:47:43.362Z,13.60
2023-03-12T13:52:55.784Z,13.50
2023-03-12T13:58:01.692Z,13.40
2023-03-12T14:03:12.391Z,13.30
2023-03-12T14:08:59.172Z,13.30
2023-03-12T14:14:19.588Z,13.30
2023-03-12T14:19:30.179Z,13.50
2023-03-12T14:24:48.886Z,13.80
2023-03-12T14:30:03.948Z,13.90
2023-03-12T14:35:08.931Z,13.90
2023-03-12T14:40:25.590Z,13.80
2023-03-12T14:45:27.808Z,13.50
2023-03-12T14:50:41.362Z,13.40
2023-03-12T14:55:43.440Z,13.40
2023-03-12T15:00:54.417Z,13.40
2023-03-12T15:05:57.513Z,13.40
2023-03-12T15:10:59.810Z,13.50
2023-03-12T15:16:02.019Z,13.40
2023-03-12T15:21:04.549Z,13.30
2023-03-12T15:26:15.524Z,13.20
2023-03-12T15:31:17.890Z,13.10
2023-03-12T15:36:26.477Z,13.00
2023-03-12T15:41:49.120Z,13.00
2023-03-12T15:47:04.091Z,13.00
2023-03-12T15:52:24.786Z,12.90
2023-03-12T15:57:26.988Z,13.00
2023-03-12T16:02:37.580Z,13.00
2023-03-12T16:07:39.756Z,13.00
2023-03-12T16:12:45.240Z,13.00
2023-03-12T16:17:47.463Z,13.10
2023-03-12T16:22:49.558Z,13.20
2023-03-12T16:27:55.094Z,13.20
2023-03-12T16:32:58.961Z,13.30
2023-03-12T16:38:02.414Z,13.30
2023-03-12T16:43:07.275Z,13.30
2023-03-12T16:48:18.161Z,13.20
2023-03-12T16:53:20.720Z,13.20
2023-03-12T16:58:24.848Z,13.10
2023-03-12T17:03:38.376Z,13.10
2023-03-12T17:08:40.484Z,13.00
2023-03-12T17:13:43.272Z,13.00
2023-03-12T17:18:45.501Z,13.00
2023-03-12T17:23:50.277Z,13.00
2023-03-12T17:28:52.291Z,13.00
2023-03-12T17:33:54.294Z,13.00
2023-03-12T17:38:56.444Z,13.00
2023-03-12T17:44:01.669Z,13.00
2023-03-12T17:49:04.038Z,13.00
2023-03-12T17:54:06.210Z,13.00
2023-03-12T17:59:08.220Z,13.00
2023-03-12T18:04:10.288Z,13.00
2023-03-12T18:09:12.265Z,13.00
2023-03-12T18:14:14.328Z,12.90
2023-03-12T18:19:16.497Z,12.90
2023-03-12T18:24:18.770Z,13.00
2023-03-12T18:29:20.890Z,12.90
2023-03-12T18:34:23.591Z,12.90
2023-03-12T18:39:25.697Z,12.90
2023-03-12T18:44:27.715Z,12.90
2023-03-12T18:49:30.093Z,12.90
2023-03-12T18:54:33.687Z,12.90
2023-03-12T18:59:35.753Z,12.90
2023-03-12T19:04:37.754Z,13.00
2023-03-12T19:09:39.805Z,13.00
2023-03-12T19:14:41.967Z,13.00
2023-03-12T19:19:43.998Z,13.00
2023-03-12T19:24:46.147Z,13.00
2023-03-12T19:29:48.194Z,13.00
2023-03-12T19:34:52.280Z,13.10
2023-03-12T19:39:54.414Z,13.10
2023-03-12T19:44:56.449Z,13.00
2023-03-12T19:49:58.569Z,13.00
2023-03-12T19:55:05.212Z,13.00
2023-03-12T20:00:10.114Z,13.00
2023-03-12T20:05:12.706Z,13.00
2023-03-12T20:10:15.496Z,13.00
2023-03-12T20:15:18.264Z,13.00
2023-03-12T20:20:20.496Z,13.00
2023-03-12T20:25:22.617Z,13.00
2023-03-12T20:30:24.745Z,13.10
2023-03-12T20:35:26.990Z,13.10
2023-03-12T20:40:29.314Z,13.10
2023-03-12T20:45:32.740Z,13.20
2023-03-12T20:50:38.868Z,13.20
2023-03-12T20:55:41.363Z,13.20
2023-03-12T21:00:44.303Z,13.10
2023-03-12T21:05:54.015Z,13.20
2023-03-12T21:10:56.153Z,13.20
2023-03-12T21:15:58.244Z,13.20
2023-03-12T21:21:08.498Z,13.10
2023-03-12T21:26:11.683Z,13.00
2023-03-12T21:31:17.685Z,13.00
2023-03-12T21:36:19.818Z,13.00
2023-03-12T21:41:21.992Z,13.10
2023-03-12T21:46:24.942Z,13.10
2023-03-12T21:51:27.186Z,13.00
2023-03-12T21:56:30.379Z,13.00
2023-03-12T22:01:32.573Z,13.00
2023-03-12T22:06:34.701Z,13.00
2023-03-12T22:11:36.764Z,13.00
2023-03-12T22:16:38.789Z,13.10
2023-03-12T22:21:42.729Z,13.10
2023-03-12T22:26:46.498Z,13.10
2023-03-12T22:31:48.691Z,13.20
2023-03-12T22:37:09.164Z,13.20
2023-03-12T22:42:11.161Z,13.20
2023-03-12T22:47:13.146Z,13.20
2023-03-12T22:52:15.188Z,13.20
2023-03-12T22:57:17.296Z,13.20
2023-03-12T23:02:19.336Z,13.10
2023-03-12T23:07:21.381Z,13.20
2023-03-12T23:12:23.666Z,13.20
2023-03-12T23:17:25.702Z,13.20
2023-03-12T23:22:27.736Z,13.30
2023-03-12T23:27:29.797Z,13.30
2023-03-12T23:32:31.810Z,13.20
2023-03-12T23:37:33.869Z,13.20
2023-03-12T23:42:35.883Z,13.20
2023-03-12T23:47:37.996Z,13.20
2023-03-12T23:52:40.032Z,13.20
2023-03-12T23:57:42.043Z,13.20
